Portada
METAR-TAF:

METAR-TAF

Aeroports :

Flying Cloud Airport

Minneapolis-Eden Prairie, Minnesota, Estats Units d'Amèrica

latitud: 44-49-56N, longitud: 093-28-13W, altitud: 287 m

Observació

L'informe es va fer fa 1 hora i 0 minuts, a les 02:53 UTC
Vent 7 kt del Nord-Est
Temperatura 25°C
Humitat 74%
Pressió 1011 hPa
Visibilitat: 16.1 km
Cel ennuvolat a una alçada de 5500 ft
Cel cobert a una alçada de 7000 ft

METAR: KFCM 180253Z 04007KT 10SM BKN055 OVC070 25/20 A2984 RMK AO2 SLP098 60000 T02500200 51022

Hora: 22:53 (03:53 UTC)


TAF: manca

Observacions i pronòstics meteorològics de més de 4000 aeroports (METAR i TAF).

Les estacions disponibles són els punts grocs i vermells al mapa.

Posi el ratolí al punt desitjat per veure el nom de l'estació.

Feu clic per veure les observacions i els pronòstics meteorològics.

Per canviar el mapa: feu clic els botons verds amb una creu de color negre per apropar; al botó verd amb un guió per allunyar la imatge; o en les fletxes verdes per a mapes adjacents.


METAR-TAF: